sensor_id;sensor_type;location;lat;lon;timestamp;P1;durP1;ratioP1;P2;durP2;ratioP2
43919;SDS011;29578;51.946;5.874;2022-12-18T00:01:40;4.38;;;1.38;;
43919;SDS011;29578;51.946;5.874;2022-12-18T00:04:07;3.17;;;1.10;;
43919;SDS011;29578;51.946;5.874;2022-12-18T00:06:39;2.00;;;0.93;;
43919;SDS011;29578;51.946;5.874;2022-12-18T00:09:05;2.67;;;1.30;;
43919;SDS011;29578;51.946;5.874;2022-12-18T00:11:30;3.35;;;1.40;;
43919;SDS011;29578;51.946;5.874;2022-12-18T00:13:57;2.38;;;1.17;;
43919;SDS011;29578;51.946;5.874;2022-12-18T00:16:24;3.30;;;1.20;;
43919;SDS011;29578;51.946;5.874;2022-12-18T00:18:52;2.97;;;1.30;;
43919;SDS011;29578;51.946;5.874;2022-12-18T00:21:20;4.32;;;1.20;;
43919;SDS011;29578;51.946;5.874;2022-12-18T00:23:46;2.60;;;1.10;;
43919;SDS011;29578;51.946;5.874;2022-12-18T00:26:14;3.25;;;1.23;;
43919;SDS011;29578;51.946;5.874;2022-12-18T00:28:43;2.15;;;0.90;;
43919;SDS011;29578;51.946;5.874;2022-12-18T00:31:10;3.58;;;1.65;;
43919;SDS011;29578;51.946;5.874;2022-12-18T00:33:38;3.05;;;1.35;;
43919;SDS011;29578;51.946;5.874;2022-12-18T00:36:05;3.13;;;1.20;;
43919;SDS011;29578;51.946;5.874;2022-12-18T00:38:34;1.90;;;1.08;;
43919;SDS011;29578;51.946;5.874;2022-12-18T00:41:00;3.63;;;1.30;;
43919;SDS011;29578;51.946;5.874;2022-12-18T00:43:25;3.33;;;1.10;;
43919;SDS011;29578;51.946;5.874;2022-12-18T00:45:51;3.05;;;1.20;;
43919;SDS011;29578;51.946;5.874;2022-12-18T00:48:17;3.42;;;1.50;;
43919;SDS011;29578;51.946;5.874;2022-12-18T00:50:43;1.98;;;1.05;;
43919;SDS011;29578;51.946;5.874;2022-12-18T00:53:09;2.42;;;1.10;;
43919;SDS011;29578;51.946;5.874;2022-12-18T00:55:36;2.47;;;1.40;;
43919;SDS011;29578;51.946;5.874;2022-12-18T00:58:02;3.13;;;1.20;;
43919;SDS011;29578;51.946;5.874;2022-12-18T01:00:28;4.47;;;1.20;;
43919;SDS011;29578;51.946;5.874;2022-12-18T01:02:54;1.70;;;0.82;;
43919;SDS011;29578;51.946;5.874;2022-12-18T01:05:19;2.55;;;1.20;;
43919;SDS011;29578;51.946;5.874;2022-12-18T01:07:45;3.17;;;1.35;;
43919;SDS011;29578;51.946;5.874;2022-12-18T01:10:11;2.88;;;1.45;;
43919;SDS011;29578;51.946;5.874;2022-12-18T01:12:37;2.53;;;1.35;;
43919;SDS011;29578;51.946;5.874;2022-12-18T01:15:04;3.17;;;1.30;;
43919;SDS011;29578;51.946;5.874;2022-12-18T01:17:30;2.13;;;0.73;;
43919;SDS011;29578;51.946;5.874;2022-12-18T01:19:56;4.00;;;1.33;;
43919;SDS011;29578;51.946;5.874;2022-12-18T01:22:22;3.90;;;1.25;;
43919;SDS011;29578;51.946;5.874;2022-12-18T01:24:48;1.92;;;0.93;;
43919;SDS011;29578;51.946;5.874;2022-12-18T01:27:13;4.47;;;1.15;;
43919;SDS011;29578;51.946;5.874;2022-12-18T01:29:39;2.92;;;1.10;;
43919;SDS011;29578;51.946;5.874;2022-12-18T01:32:05;3.67;;;1.33;;
43919;SDS011;29578;51.946;5.874;2022-12-18T01:34:31;3.55;;;1.30;;
43919;SDS011;29578;51.946;5.874;2022-12-18T01:36:56;3.33;;;1.48;;
43919;SDS011;29578;51.946;5.874;2022-12-18T01:39:22;2.20;;;1.10;;
43919;SDS011;29578;51.946;5.874;2022-12-18T01:41:47;2.15;;;1.08;;
43919;SDS011;29578;51.946;5.874;2022-12-18T01:50:15;3.60;;;1.17;;
43919;SDS011;29578;51.946;5.874;2022-12-18T01:52:49;3.03;;;1.17;;
43919;SDS011;29578;51.946;5.874;2022-12-18T01:55:20;3.20;;;1.10;;
43919;SDS011;29578;51.946;5.874;2022-12-18T01:57:49;2.72;;;1.10;;
43919;SDS011;29578;51.946;5.874;2022-12-18T02:00:19;2.92;;;1.10;;
43919;SDS011;29578;51.946;5.874;2022-12-18T02:02:47;2.85;;;0.98;;
43919;SDS011;29578;51.946;5.874;2022-12-18T02:05:15;1.88;;;1.08;;
43919;SDS011;29578;51.946;5.874;2022-12-18T02:07:48;2.47;;;0.93;;
43919;SDS011;29578;51.946;5.874;2022-12-18T02:10:31;3.15;;;1.00;;
43919;SDS011;29578;51.946;5.874;2022-12-18T02:13:10;1.98;;;1.05;;
43919;SDS011;29578;51.946;5.874;2022-12-18T02:15:51;4.43;;;1.27;;
43919;SDS011;29578;51.946;5.874;2022-12-18T02:18:41;3.15;;;1.20;;
43919;SDS011;29578;51.946;5.874;2022-12-18T02:21:24;3.47;;;1.05;;
43919;SDS011;29578;51.946;5.874;2022-12-18T02:24:24;2.05;;;0.90;;
43919;SDS011;29578;51.946;5.874;2022-12-18T02:26:59;2.78;;;0.93;;
43919;SDS011;29578;51.946;5.874;2022-12-18T02:29:31;2.30;;;1.08;;
43919;SDS011;29578;51.946;5.874;2022-12-18T02:32:02;1.75;;;0.88;;
43919;SDS011;29578;51.946;5.874;2022-12-18T02:34:35;3.65;;;1.38;;
43919;SDS011;29578;51.946;5.874;2022-12-18T02:37:04;2.58;;;1.15;;
43919;SDS011;29578;51.946;5.874;2022-12-18T02:39:34;2.80;;;1.10;;
43919;SDS011;29578;51.946;5.874;2022-12-18T02:42:02;3.13;;;1.30;;
43919;SDS011;29578;51.946;5.874;2022-12-18T02:44:33;5.15;;;1.25;;
43919;SDS011;29578;51.946;5.874;2022-12-18T02:46:59;4.00;;;1.02;;
43919;SDS011;29578;51.946;5.874;2022-12-18T02:54:59;2.42;;;0.98;;
43919;SDS011;29578;51.946;5.874;2022-12-18T02:57:36;2.35;;;0.90;;
43919;SDS011;29578;51.946;5.874;2022-12-18T03:00:08;2.22;;;1.00;;
43919;SDS011;29578;51.946;5.874;2022-12-18T03:05:22;1.92;;;0.77;;
43919;SDS011;29578;51.946;5.874;2022-12-18T03:10:34;2.88;;;1.00;;
43919;SDS011;29578;51.946;5.874;2022-12-18T03:13:07;2.08;;;0.90;;
43919;SDS011;29578;51.946;5.874;2022-12-18T03:15:38;4.05;;;1.13;;
43919;SDS011;29578;51.946;5.874;2022-12-18T03:18:10;1.70;;;0.77;;
43919;SDS011;29578;51.946;5.874;2022-12-18T03:20:38;3.30;;;1.03;;
43919;SDS011;29578;51.946;5.874;2022-12-18T03:23:08;3.15;;;0.90;;
43919;SDS011;29578;51.946;5.874;2022-12-18T03:25:39;1.80;;;0.90;;
43919;SDS011;29578;51.946;5.874;2022-12-18T03:28:07;2.45;;;0.80;;
43919;SDS011;29578;51.946;5.874;2022-12-18T03:30:37;2.33;;;0.73;;
43919;SDS011;29578;51.946;5.874;2022-12-18T03:33:08;2.08;;;1.13;;
43919;SDS011;29578;51.946;5.874;2022-12-18T03:35:38;3.20;;;0.93;;
43919;SDS011;29578;51.946;5.874;2022-12-18T03:38:07;2.55;;;0.90;;
43919;SDS011;29578;51.946;5.874;2022-12-18T03:40:45;3.50;;;1.38;;
43919;SDS011;29578;51.946;5.874;2022-12-18T03:46:17;1.88;;;0.80;;
43919;SDS011;29578;51.946;5.874;2022-12-18T03:48:52;3.53;;;1.00;;
43919;SDS011;29578;51.946;5.874;2022-12-18T03:51:27;1.52;;;0.70;;
43919;SDS011;29578;51.946;5.874;2022-12-18T03:54:02;3.53;;;1.20;;
43919;SDS011;29578;51.946;5.874;2022-12-18T03:56:30;2.65;;;0.80;;
43919;SDS011;29578;51.946;5.874;2022-12-18T03:59:00;1.35;;;0.70;;
43919;SDS011;29578;51.946;5.874;2022-12-18T04:01:30;2.15;;;0.80;;
43919;SDS011;29578;51.946;5.874;2022-12-18T04:03:59;3.65;;;1.08;;
43919;SDS011;29578;51.946;5.874;2022-12-18T04:06:27;2.53;;;1.08;;
43919;SDS011;29578;51.946;5.874;2022-12-18T04:08:54;2.67;;;1.00;;
43919;SDS011;29578;51.946;5.874;2022-12-18T04:11:20;2.63;;;1.00;;
43919;SDS011;29578;51.946;5.874;2022-12-18T04:13:45;2.33;;;0.75;;
43919;SDS011;29578;51.946;5.874;2022-12-18T04:16:11;1.00;;;0.60;;
43919;SDS011;29578;51.946;5.874;2022-12-18T04:18:37;2.15;;;0.88;;
43919;SDS011;29578;51.946;5.874;2022-12-18T04:21:02;2.25;;;0.82;;
43919;SDS011;29578;51.946;5.874;2022-12-18T04:23:28;2.58;;;0.70;;
43919;SDS011;29578;51.946;5.874;2022-12-18T04:25:54;2.75;;;1.20;;
43919;SDS011;29578;51.946;5.874;2022-12-18T04:28:20;1.55;;;0.80;;
43919;SDS011;29578;51.946;5.874;2022-12-18T04:30:49;1.83;;;1.05;;
43919;SDS011;29578;51.946;5.874;2022-12-18T04:33:17;1.55;;;0.80;;
43919;SDS011;29578;51.946;5.874;2022-12-18T04:35:43;2.55;;;0.93;;
43919;SDS011;29578;51.946;5.874;2022-12-18T04:38:10;1.77;;;0.80;;
43919;SDS011;29578;51.946;5.874;2022-12-18T04:40:36;1.02;;;0.60;;
43919;SDS011;29578;51.946;5.874;2022-12-18T04:43:02;1.75;;;0.80;;
43919;SDS011;29578;51.946;5.874;2022-12-18T04:45:29;2.60;;;1.08;;
43919;SDS011;29578;51.946;5.874;2022-12-18T04:47:57;1.67;;;0.82;;
43919;SDS011;29578;51.946;5.874;2022-12-18T04:50:23;1.88;;;0.85;;
43919;SDS011;29578;51.946;5.874;2022-12-18T04:52:49;2.13;;;0.90;;
43919;SDS011;29578;51.946;5.874;2022-12-18T04:55:14;2.05;;;0.90;;
43919;SDS011;29578;51.946;5.874;2022-12-18T04:57:40;1.83;;;0.77;;
43919;SDS011;29578;51.946;5.874;2022-12-18T05:00:06;1.75;;;0.70;;
43919;SDS011;29578;51.946;5.874;2022-12-18T05:02:32;2.65;;;0.70;;
43919;SDS011;29578;51.946;5.874;2022-12-18T05:04:58;2.60;;;0.90;;
43919;SDS011;29578;51.946;5.874;2022-12-18T05:07:23;1.60;;;0.80;;
43919;SDS011;29578;51.946;5.874;2022-12-18T05:09:49;2.50;;;0.93;;
43919;SDS011;29578;51.946;5.874;2022-12-18T05:12:15;1.95;;;0.93;;
43919;SDS011;29578;51.946;5.874;2022-12-18T05:14:40;1.33;;;0.65;;
43919;SDS011;29578;51.946;5.874;2022-12-18T05:17:06;1.30;;;0.80;;
43919;SDS011;29578;51.946;5.874;2022-12-18T05:19:32;1.95;;;0.98;;
43919;SDS011;29578;51.946;5.874;2022-12-18T05:21:57;2.10;;;0.70;;
43919;SDS011;29578;51.946;5.874;2022-12-18T05:24:23;1.88;;;0.80;;
43919;SDS011;29578;51.946;5.874;2022-12-18T05:26:49;2.25;;;0.77;;
43919;SDS011;29578;51.946;5.874;2022-12-18T05:29:14;2.33;;;0.80;;
43919;SDS011;29578;51.946;5.874;2022-12-18T05:31:40;1.27;;;0.80;;
43919;SDS011;29578;51.946;5.874;2022-12-18T05:34:06;1.88;;;0.60;;
43919;SDS011;29578;51.946;5.874;2022-12-18T05:36:31;2.00;;;1.00;;
43919;SDS011;29578;51.946;5.874;2022-12-18T05:38:57;1.73;;;0.85;;
43919;SDS011;29578;51.946;5.874;2022-12-18T05:41:23;1.70;;;0.95;;
43919;SDS011;29578;51.946;5.874;2022-12-18T05:43:48;2.28;;;0.90;;
43919;SDS011;29578;51.946;5.874;2022-12-18T05:46:15;1.55;;;0.70;;
43919;SDS011;29578;51.946;5.874;2022-12-18T05:48:43;1.67;;;0.80;;
43919;SDS011;29578;51.946;5.874;2022-12-18T05:51:11;1.88;;;1.00;;
43919;SDS011;29578;51.946;5.874;2022-12-18T05:53:39;1.85;;;0.88;;
43919;SDS011;29578;51.946;5.874;2022-12-18T05:56:06;0.98;;;0.70;;
43919;SDS011;29578;51.946;5.874;2022-12-18T05:58:34;2.58;;;0.90;;
43919;SDS011;29578;51.946;5.874;2022-12-18T06:01:08;1.15;;;0.55;;
43919;SDS011;29578;51.946;5.874;2022-12-18T06:03:39;2.35;;;1.05;;
43919;SDS011;29578;51.946;5.874;2022-12-18T06:06:12;2.15;;;0.93;;
43919;SDS011;29578;51.946;5.874;2022-12-18T06:08:39;2.70;;;0.75;;
43919;SDS011;29578;51.946;5.874;2022-12-18T06:11:04;1.60;;;0.85;;
43919;SDS011;29578;51.946;5.874;2022-12-18T06:13:30;1.67;;;0.90;;
43919;SDS011;29578;51.946;5.874;2022-12-18T06:15:56;1.25;;;0.52;;
43919;SDS011;29578;51.946;5.874;2022-12-18T06:18:21;1.15;;;0.68;;
43919;SDS011;29578;51.946;5.874;2022-12-18T06:20:54;2.05;;;0.80;;
43919;SDS011;29578;51.946;5.874;2022-12-18T06:23:21;1.23;;;0.68;;
43919;SDS011;29578;51.946;5.874;2022-12-18T06:25:46;1.48;;;0.75;;
43919;SDS011;29578;51.946;5.874;2022-12-18T06:28:12;2.55;;;1.00;;
43919;SDS011;29578;51.946;5.874;2022-12-18T06:30:38;1.80;;;0.80;;
43919;SDS011;29578;51.946;5.874;2022-12-18T06:33:03;0.90;;;0.50;;
43919;SDS011;29578;51.946;5.874;2022-12-18T06:35:29;1.27;;;0.63;;
43919;SDS011;29578;51.946;5.874;2022-12-18T06:37:54;2.70;;;0.85;;
43919;SDS011;29578;51.946;5.874;2022-12-18T06:40:20;1.65;;;0.80;;
43919;SDS011;29578;51.946;5.874;2022-12-18T06:42:46;1.38;;;0.75;;
43919;SDS011;29578;51.946;5.874;2022-12-18T06:45:14;1.25;;;0.65;;
43919;SDS011;29578;51.946;5.874;2022-12-18T06:47:40;1.42;;;0.68;;
43919;SDS011;29578;51.946;5.874;2022-12-18T06:50:06;1.52;;;0.90;;
43919;SDS011;29578;51.946;5.874;2022-12-18T06:52:32;1.20;;;0.75;;
43919;SDS011;29578;51.946;5.874;2022-12-18T06:54:59;2.38;;;0.85;;
43919;SDS011;29578;51.946;5.874;2022-12-18T06:57:25;0.95;;;0.50;;
43919;SDS011;29578;51.946;5.874;2022-12-18T06:59:51;1.35;;;0.70;;
43919;SDS011;29578;51.946;5.874;2022-12-18T07:02:17;1.15;;;0.52;;
43919;SDS011;29578;51.946;5.874;2022-12-18T07:04:42;1.58;;;0.93;;
43919;SDS011;29578;51.946;5.874;2022-12-18T07:07:08;1.98;;;1.10;;
43919;SDS011;29578;51.946;5.874;2022-12-18T07:09:34;1.25;;;0.68;;
43919;SDS011;29578;51.946;5.874;2022-12-18T07:11:59;1.25;;;0.70;;
43919;SDS011;29578;51.946;5.874;2022-12-18T07:14:25;2.25;;;0.82;;
43919;SDS011;29578;51.946;5.874;2022-12-18T07:16:51;2.08;;;0.90;;
43919;SDS011;29578;51.946;5.874;2022-12-18T07:19:16;1.85;;;0.80;;
43919;SDS011;29578;51.946;5.874;2022-12-18T07:21:42;1.52;;;0.77;;
43919;SDS011;29578;51.946;5.874;2022-12-18T07:24:07;1.23;;;0.60;;
43919;SDS011;29578;51.946;5.874;2022-12-18T07:26:33;1.50;;;0.60;;
43919;SDS011;29578;51.946;5.874;2022-12-18T07:28:58;1.70;;;0.85;;
43919;SDS011;29578;51.946;5.874;2022-12-18T07:31:25;1.52;;;0.60;;
43919;SDS011;29578;51.946;5.874;2022-12-18T07:33:51;1.95;;;0.90;;
43919;SDS011;29578;51.946;5.874;2022-12-18T07:36:17;1.50;;;0.77;;
43919;SDS011;29578;51.946;5.874;2022-12-18T07:38:46;1.95;;;0.70;;
43919;SDS011;29578;51.946;5.874;2022-12-18T07:41:12;1.33;;;0.63;;
43919;SDS011;29578;51.946;5.874;2022-12-18T07:43:38;1.73;;;0.70;;
43919;SDS011;29578;51.946;5.874;2022-12-18T07:46:05;0.70;;;0.40;;
43919;SDS011;29578;51.946;5.874;2022-12-18T07:48:31;2.00;;;0.70;;
43919;SDS011;29578;51.946;5.874;2022-12-18T07:50:58;1.27;;;0.80;;
43919;SDS011;29578;51.946;5.874;2022-12-18T07:53:25;1.67;;;0.80;;
43919;SDS011;29578;51.946;5.874;2022-12-18T07:55:55;2.38;;;0.90;;
43919;SDS011;29578;51.946;5.874;2022-12-18T07:58:22;1.42;;;0.60;;
43919;SDS011;29578;51.946;5.874;2022-12-18T08:00:48;1.65;;;0.52;;
43919;SDS011;29578;51.946;5.874;2022-12-18T08:03:13;1.75;;;0.55;;
43919;SDS011;29578;51.946;5.874;2022-12-18T08:05:39;0.43;;;0.40;;
43919;SDS011;29578;51.946;5.874;2022-12-18T08:08:05;2.10;;;0.80;;
43919;SDS011;29578;51.946;5.874;2022-12-18T08:10:30;1.15;;;0.50;;
43919;SDS011;29578;51.946;5.874;2022-12-18T08:12:56;1.08;;;0.40;;
43919;SDS011;29578;51.946;5.874;2022-12-18T08:15:22;1.33;;;0.55;;
43919;SDS011;29578;51.946;5.874;2022-12-18T08:17:47;1.88;;;0.73;;
43919;SDS011;29578;51.946;5.874;2022-12-18T08:20:13;1.55;;;0.60;;
43919;SDS011;29578;51.946;5.874;2022-12-18T08:22:40;1.30;;;0.68;;
43919;SDS011;29578;51.946;5.874;2022-12-18T08:25:07;1.00;;;0.50;;
43919;SDS011;29578;51.946;5.874;2022-12-18T08:27:33;1.38;;;0.70;;
43919;SDS011;29578;51.946;5.874;2022-12-18T08:29:59;1.85;;;0.60;;
43919;SDS011;29578;51.946;5.874;2022-12-18T08:32:25;1.30;;;0.63;;
43919;SDS011;29578;51.946;5.874;2022-12-18T08:34:51;1.75;;;0.70;;
43919;SDS011;29578;51.946;5.874;2022-12-18T08:37:17;2.63;;;0.90;;
43919;SDS011;29578;51.946;5.874;2022-12-18T08:39:43;1.67;;;0.60;;
43919;SDS011;29578;51.946;5.874;2022-12-18T08:42:09;1.45;;;0.77;;
43919;SDS011;29578;51.946;5.874;2022-12-18T08:44:49;1.40;;;0.60;;
43919;SDS011;29578;51.946;5.874;2022-12-18T08:47:15;0.57;;;0.30;;
43919;SDS011;29578;51.946;5.874;2022-12-18T08:49:40;1.25;;;0.57;;
43919;SDS011;29578;51.946;5.874;2022-12-18T08:52:06;0.52;;;0.45;;
43919;SDS011;29578;51.946;5.874;2022-12-18T08:54:31;0.38;;;0.32;;
43919;SDS011;29578;51.946;5.874;2022-12-18T08:56:57;0.70;;;0.40;;
43919;SDS011;29578;51.946;5.874;2022-12-18T08:59:23;0.75;;;0.50;;
43919;SDS011;29578;51.946;5.874;2022-12-18T09:01:48;1.08;;;0.47;;
43919;SDS011;29578;51.946;5.874;2022-12-18T09:04:14;1.20;;;0.50;;
43919;SDS011;29578;51.946;5.874;2022-12-18T09:06:40;0.95;;;0.40;;
43919;SDS011;29578;51.946;5.874;2022-12-18T09:09:05;1.48;;;0.60;;
43919;SDS011;29578;51.946;5.874;2022-12-18T09:11:32;0.90;;;0.40;;
43919;SDS011;29578;51.946;5.874;2022-12-18T09:13:59;1.15;;;0.60;;
43919;SDS011;29578;51.946;5.874;2022-12-18T09:16:26;0.75;;;0.50;;
43919;SDS011;29578;51.946;5.874;2022-12-18T09:18:54;1.30;;;0.60;;
43919;SDS011;29578;51.946;5.874;2022-12-18T09:21:24;1.20;;;0.57;;
43919;SDS011;29578;51.946;5.874;2022-12-18T09:23:52;1.38;;;0.50;;
43919;SDS011;29578;51.946;5.874;2022-12-18T09:26:19;1.15;;;0.40;;
43919;SDS011;29578;51.946;5.874;2022-12-18T09:28:45;1.38;;;0.70;;
43919;SDS011;29578;51.946;5.874;2022-12-18T09:31:11;1.30;;;0.60;;
43919;SDS011;29578;51.946;5.874;2022-12-18T09:33:41;0.77;;;0.50;;
43919;SDS011;29578;51.946;5.874;2022-12-18T09:36:07;1.00;;;0.63;;
43919;SDS011;29578;51.946;5.874;2022-12-18T09:38:35;1.50;;;0.70;;
43919;SDS011;29578;51.946;5.874;2022-12-18T09:41:05;2.15;;;0.70;;
43919;SDS011;29578;51.946;5.874;2022-12-18T09:43:45;0.95;;;0.63;;
43919;SDS011;29578;51.946;5.874;2022-12-18T09:46:16;2.20;;;0.60;;
43919;SDS011;29578;51.946;5.874;2022-12-18T09:48:47;1.50;;;0.70;;
43919;SDS011;29578;51.946;5.874;2022-12-18T09:51:18;1.38;;;0.45;;
43919;SDS011;29578;51.946;5.874;2022-12-18T09:53:50;1.15;;;0.50;;
43919;SDS011;29578;51.946;5.874;2022-12-18T09:56:20;1.05;;;0.60;;
43919;SDS011;29578;51.946;5.874;2022-12-18T10:01:25;1.10;;;0.52;;
43919;SDS011;29578;51.946;5.874;2022-12-18T10:03:52;0.77;;;0.47;;
43919;SDS011;29578;51.946;5.874;2022-12-18T10:06:22;1.30;;;0.60;;
43919;SDS011;29578;51.946;5.874;2022-12-18T10:09:20;1.05;;;0.50;;
43919;SDS011;29578;51.946;5.874;2022-12-18T10:12:13;1.42;;;0.63;;
43919;SDS011;29578;51.946;5.874;2022-12-18T10:14:48;0.32;;;0.22;;
43919;SDS011;29578;51.946;5.874;2022-12-18T10:17:24;1.30;;;0.47;;
43919;SDS011;29578;51.946;5.874;2022-12-18T10:20:16;1.35;;;0.68;;
43919;SDS011;29578;51.946;5.874;2022-12-18T10:23:02;1.58;;;0.60;;
43919;SDS011;29578;51.946;5.874;2022-12-18T10:25:53;0.47;;;0.30;;
43919;SDS011;29578;51.946;5.874;2022-12-18T10:28:29;0.75;;;0.68;;
43919;SDS011;29578;51.946;5.874;2022-12-18T10:30:57;1.70;;;0.50;;
43919;SDS011;29578;51.946;5.874;2022-12-18T10:33:24;1.50;;;0.50;;
43919;SDS011;29578;51.946;5.874;2022-12-18T10:35:53;1.05;;;0.65;;
43919;SDS011;29578;51.946;5.874;2022-12-18T10:38:21;0.80;;;0.40;;
43919;SDS011;29578;51.946;5.874;2022-12-18T10:40:55;0.90;;;0.47;;
43919;SDS011;29578;51.946;5.874;2022-12-18T10:43:30;1.73;;;0.52;;
43919;SDS011;29578;51.946;5.874;2022-12-18T10:46:11;0.60;;;0.45;;
43919;SDS011;29578;51.946;5.874;2022-12-18T10:48:47;0.70;;;0.50;;
43919;SDS011;29578;51.946;5.874;2022-12-18T10:51:27;0.82;;;0.43;;
43919;SDS011;29578;51.946;5.874;2022-12-18T10:53:59;1.20;;;0.60;;
43919;SDS011;29578;51.946;5.874;2022-12-18T10:56:32;1.02;;;0.60;;
43919;SDS011;29578;51.946;5.874;2022-12-18T10:59:01;1.15;;;0.65;;
43919;SDS011;29578;51.946;5.874;2022-12-18T11:01:32;0.50;;;0.45;;
43919;SDS011;29578;51.946;5.874;2022-12-18T11:04:23;0.90;;;0.52;;
43919;SDS011;29578;51.946;5.874;2022-12-18T11:06:52;0.75;;;0.60;;
43919;SDS011;29578;51.946;5.874;2022-12-18T11:09:22;1.25;;;0.52;;
43919;SDS011;29578;51.946;5.874;2022-12-18T11:11:50;1.83;;;0.70;;
43919;SDS011;29578;51.946;5.874;2022-12-18T11:14:21;1.17;;;0.70;;
43919;SDS011;29578;51.946;5.874;2022-12-18T11:16:49;1.53;;;0.60;;
43919;SDS011;29578;51.946;5.874;2022-12-18T11:19:21;0.98;;;0.60;;
43919;SDS011;29578;51.946;5.874;2022-12-18T11:21:56;1.48;;;0.70;;
43919;SDS011;29578;51.946;5.874;2022-12-18T11:24:27;0.85;;;0.60;;
43919;SDS011;29578;51.946;5.874;2022-12-18T11:26:57;1.10;;;0.63;;
43919;SDS011;29578;51.946;5.874;2022-12-18T11:29:34;1.38;;;0.70;;
43919;SDS011;29578;51.946;5.874;2022-12-18T11:34:55;1.10;;;0.70;;
43919;SDS011;29578;51.946;5.874;2022-12-18T11:37:27;0.90;;;0.50;;
43919;SDS011;29578;51.946;5.874;2022-12-18T11:39:56;1.50;;;0.57;;
43919;SDS011;29578;51.946;5.874;2022-12-18T11:42:30;0.88;;;0.60;;
43919;SDS011;29578;51.946;5.874;2022-12-18T11:47:57;1.17;;;0.60;;
43919;SDS011;29578;51.946;5.874;2022-12-18T11:50:32;1.23;;;0.65;;
43919;SDS011;29578;51.946;5.874;2022-12-18T11:53:09;1.40;;;0.68;;
43919;SDS011;29578;51.946;5.874;2022-12-18T11:55:39;1.45;;;0.60;;
43919;SDS011;29578;51.946;5.874;2022-12-18T12:01:13;1.42;;;0.75;;
43919;SDS011;29578;51.946;5.874;2022-12-18T12:04:05;1.05;;;0.70;;
43919;SDS011;29578;51.946;5.874;2022-12-18T12:09:51;1.33;;;0.75;;
43919;SDS011;29578;51.946;5.874;2022-12-18T12:12:34;1.67;;;0.80;;
43919;SDS011;29578;51.946;5.874;2022-12-18T12:18:24;1.42;;;0.70;;
43919;SDS011;29578;51.946;5.874;2022-12-18T12:23:56;1.33;;;0.63;;
43919;SDS011;29578;51.946;5.874;2022-12-18T12:26:37;0.95;;;0.60;;
43919;SDS011;29578;51.946;5.874;2022-12-18T12:32:17;0.80;;;0.65;;
43919;SDS011;29578;51.946;5.874;2022-12-18T12:38:03;1.52;;;0.65;;
43919;SDS011;29578;51.946;5.874;2022-12-18T12:40:48;0.88;;;0.60;;
43919;SDS011;29578;51.946;5.874;2022-12-18T12:43:28;1.42;;;0.65;;
43919;SDS011;29578;51.946;5.874;2022-12-18T12:46:10;1.40;;;0.70;;
43919;SDS011;29578;51.946;5.874;2022-12-18T12:48:40;0.88;;;0.52;;
43919;SDS011;29578;51.946;5.874;2022-12-18T12:51:14;1.38;;;0.90;;
43919;SDS011;29578;51.946;5.874;2022-12-18T12:56:10;1.38;;;0.60;;
43919;SDS011;29578;51.946;5.874;2022-12-18T12:58:59;1.08;;;0.68;;
43919;SDS011;29578;51.946;5.874;2022-12-18T13:01:34;1.10;;;0.60;;
43919;SDS011;29578;51.946;5.874;2022-12-18T13:04:23;1.20;;;0.57;;
43919;SDS011;29578;51.946;5.874;2022-12-18T13:07:12;1.80;;;0.90;;
43919;SDS011;29578;51.946;5.874;2022-12-18T13:15:28;1.30;;;0.80;;
43919;SDS011;29578;51.946;5.874;2022-12-18T13:18:21;1.50;;;0.95;;
43919;SDS011;29578;51.946;5.874;2022-12-18T13:20:50;2.33;;;1.00;;
43919;SDS011;29578;51.946;5.874;2022-12-18T13:23:28;1.33;;;0.80;;
43919;SDS011;29578;51.946;5.874;2022-12-18T13:25:57;2.20;;;0.90;;
43919;SDS011;29578;51.946;5.874;2022-12-18T13:34:24;0.93;;;0.65;;
43919;SDS011;29578;51.946;5.874;2022-12-18T13:36:52;1.52;;;0.80;;
43919;SDS011;29578;51.946;5.874;2022-12-18T13:39:21;1.83;;;0.80;;
43919;SDS011;29578;51.946;5.874;2022-12-18T13:41:53;1.17;;;0.70;;
43919;SDS011;29578;51.946;5.874;2022-12-18T13:44:59;1.63;;;0.80;;
43919;SDS011;29578;51.946;5.874;2022-12-18T13:47:32;0.93;;;0.57;;
43919;SDS011;29578;51.946;5.874;2022-12-18T13:50:00;1.75;;;0.82;;
43919;SDS011;29578;51.946;5.874;2022-12-18T13:52:35;1.50;;;0.80;;
43919;SDS011;29578;51.946;5.874;2022-12-18T13:55:05;1.52;;;0.82;;
43919;SDS011;29578;51.946;5.874;2022-12-18T13:57:39;1.25;;;0.77;;
43919;SDS011;29578;51.946;5.874;2022-12-18T14:03:01;1.17;;;0.80;;
43919;SDS011;29578;51.946;5.874;2022-12-18T14:05:28;2.40;;;1.00;;
43919;SDS011;29578;51.946;5.874;2022-12-18T14:08:00;1.45;;;0.90;;
43919;SDS011;29578;51.946;5.874;2022-12-18T14:10:35;0.98;;;0.70;;
43919;SDS011;29578;51.946;5.874;2022-12-18T14:13:07;0.50;;;0.50;;
43919;SDS011;29578;51.946;5.874;2022-12-18T14:15:42;1.33;;;0.70;;
43919;SDS011;29578;51.946;5.874;2022-12-18T14:18:18;2.53;;;1.10;;
43919;SDS011;29578;51.946;5.874;2022-12-18T14:20:47;1.42;;;0.77;;
43919;SDS011;29578;51.946;5.874;2022-12-18T14:25:59;1.33;;;0.82;;
43919;SDS011;29578;51.946;5.874;2022-12-18T14:28:26;1.90;;;1.02;;
43919;SDS011;29578;51.946;5.874;2022-12-18T14:30:52;1.67;;;0.85;;
43919;SDS011;29578;51.946;5.874;2022-12-18T14:33:21;1.58;;;0.80;;
43919;SDS011;29578;51.946;5.874;2022-12-18T14:36:05;1.98;;;1.20;;
43919;SDS011;29578;51.946;5.874;2022-12-18T14:38:33;1.83;;;0.80;;
43919;SDS011;29578;51.946;5.874;2022-12-18T14:41:02;1.15;;;0.80;;
43919;SDS011;29578;51.946;5.874;2022-12-18T14:43:35;1.45;;;0.75;;
43919;SDS011;29578;51.946;5.874;2022-12-18T14:46:03;1.63;;;1.00;;
43919;SDS011;29578;51.946;5.874;2022-12-18T14:48:39;2.17;;;1.10;;
43919;SDS011;29578;51.946;5.874;2022-12-18T14:51:12;1.48;;;0.80;;
43919;SDS011;29578;51.946;5.874;2022-12-18T14:53:44;1.98;;;1.00;;
43919;SDS011;29578;51.946;5.874;2022-12-18T14:56:25;1.58;;;0.93;;
43919;SDS011;29578;51.946;5.874;2022-12-18T14:58:54;1.97;;;1.00;;
43919;SDS011;29578;51.946;5.874;2022-12-18T15:01:44;1.10;;;0.65;;
43919;SDS011;29578;51.946;5.874;2022-12-18T15:04:38;2.00;;;0.82;;
43919;SDS011;29578;51.946;5.874;2022-12-18T15:07:14;1.27;;;0.65;;
43919;SDS011;29578;51.946;5.874;2022-12-18T15:12:37;1.30;;;0.80;;
43919;SDS011;29578;51.946;5.874;2022-12-18T15:15:41;1.17;;;0.73;;
43919;SDS011;29578;51.946;5.874;2022-12-18T15:18:12;1.08;;;0.50;;
43919;SDS011;29578;51.946;5.874;2022-12-18T15:20:44;1.30;;;0.73;;
43919;SDS011;29578;51.946;5.874;2022-12-18T15:23:24;1.15;;;0.70;;
43919;SDS011;29578;51.946;5.874;2022-12-18T15:26:00;1.42;;;0.68;;
43919;SDS011;29578;51.946;5.874;2022-12-18T15:28:31;1.25;;;0.73;;
43919;SDS011;29578;51.946;5.874;2022-12-18T15:36:37;2.05;;;0.80;;
43919;SDS011;29578;51.946;5.874;2022-12-18T15:39:03;1.23;;;0.75;;
43919;SDS011;29578;51.946;5.874;2022-12-18T15:41:30;1.10;;;0.63;;
43919;SDS011;29578;51.946;5.874;2022-12-18T15:43:58;1.52;;;0.88;;
43919;SDS011;29578;51.946;5.874;2022-12-18T15:46:24;0.70;;;0.60;;
43919;SDS011;29578;51.946;5.874;2022-12-18T15:48:52;2.05;;;0.95;;
43919;SDS011;29578;51.946;5.874;2022-12-18T15:51:20;0.88;;;0.60;;
43919;SDS011;29578;51.946;5.874;2022-12-18T15:53:50;1.92;;;0.93;;
43919;SDS011;29578;51.946;5.874;2022-12-18T15:56:19;1.35;;;0.70;;
43919;SDS011;29578;51.946;5.874;2022-12-18T15:58:59;1.60;;;0.90;;
43919;SDS011;29578;51.946;5.874;2022-12-18T16:01:27;2.00;;;1.00;;
43919;SDS011;29578;51.946;5.874;2022-12-18T16:03:53;2.58;;;1.05;;
43919;SDS011;29578;51.946;5.874;2022-12-18T16:06:20;1.98;;;0.82;;
43919;SDS011;29578;51.946;5.874;2022-12-18T16:08:46;1.35;;;0.80;;
43919;SDS011;29578;51.946;5.874;2022-12-18T16:14:25;1.27;;;0.70;;
43919;SDS011;29578;51.946;5.874;2022-12-18T16:16:54;1.23;;;0.82;;
43919;SDS011;29578;51.946;5.874;2022-12-18T16:19:22;1.65;;;0.90;;
43919;SDS011;29578;51.946;5.874;2022-12-18T16:21:48;2.80;;;1.10;;
43919;SDS011;29578;51.946;5.874;2022-12-18T16:24:17;2.20;;;1.17;;